sensor_id;sensor_type;location;lat;lon;timestamp;P1;durP1;ratioP1;P2;durP2;ratioP2
36497;SDS011;22513;51.222;6.480;2022-11-20T00:00:46;25.75;;;16.25;;
36497;SDS011;22513;51.222;6.480;2022-11-20T00:03:12;31.27;;;16.50;;
36497;SDS011;22513;51.222;6.480;2022-11-20T00:05:38;28.63;;;16.08;;
36497;SDS011;22513;51.222;6.480;2022-11-20T00:08:03;25.48;;;15.93;;
36497;SDS011;22513;51.222;6.480;2022-11-20T00:10:29;27.90;;;15.98;;
36497;SDS011;22513;51.222;6.480;2022-11-20T00:12:55;28.67;;;15.65;;
36497;SDS011;22513;51.222;6.480;2022-11-20T00:15:22;25.33;;;13.98;;
36497;SDS011;22513;51.222;6.480;2022-11-20T00:17:48;24.83;;;14.30;;
36497;SDS011;22513;51.222;6.480;2022-11-20T00:20:14;25.17;;;15.18;;
36497;SDS011;22513;51.222;6.480;2022-11-20T00:22:39;27.73;;;14.75;;
36497;SDS011;22513;51.222;6.480;2022-11-20T00:25:05;25.33;;;15.50;;
36497;SDS011;22513;51.222;6.480;2022-11-20T00:27:31;28.30;;;16.00;;
36497;SDS011;22513;51.222;6.480;2022-11-20T00:29:56;24.33;;;15.73;;
36497;SDS011;22513;51.222;6.480;2022-11-20T00:32:22;24.58;;;14.77;;
36497;SDS011;22513;51.222;6.480;2022-11-20T00:34:47;26.23;;;14.52;;
36497;SDS011;22513;51.222;6.480;2022-11-20T00:37:13;24.88;;;15.07;;
36497;SDS011;22513;51.222;6.480;2022-11-20T00:39:38;25.58;;;14.85;;
36497;SDS011;22513;51.222;6.480;2022-11-20T00:42:04;25.20;;;15.85;;
36497;SDS011;22513;51.222;6.480;2022-11-20T00:44:29;25.20;;;16.45;;
36497;SDS011;22513;51.222;6.480;2022-11-20T00:46:55;25.75;;;15.18;;
36497;SDS011;22513;51.222;6.480;2022-11-20T00:49:20;29.33;;;16.65;;
36497;SDS011;22513;51.222;6.480;2022-11-20T00:51:46;23.92;;;14.30;;
36497;SDS011;22513;51.222;6.480;2022-11-20T00:54:12;26.13;;;15.77;;
36497;SDS011;22513;51.222;6.480;2022-11-20T00:56:37;23.30;;;15.70;;
36497;SDS011;22513;51.222;6.480;2022-11-20T00:59:03;24.73;;;15.55;;
36497;SDS011;22513;51.222;6.480;2022-11-20T01:01:29;24.65;;;15.52;;
36497;SDS011;22513;51.222;6.480;2022-11-20T01:03:56;24.25;;;14.95;;
36497;SDS011;22513;51.222;6.480;2022-11-20T01:06:24;28.08;;;15.45;;
36497;SDS011;22513;51.222;6.480;2022-11-20T01:08:52;27.20;;;16.58;;
36497;SDS011;22513;51.222;6.480;2022-11-20T01:11:22;29.95;;;17.35;;
36497;SDS011;22513;51.222;6.480;2022-11-20T01:13:50;25.77;;;16.40;;
36497;SDS011;22513;51.222;6.480;2022-11-20T01:18:57;27.38;;;16.83;;
36497;SDS011;22513;51.222;6.480;2022-11-20T01:21:34;27.08;;;16.15;;
36497;SDS011;22513;51.222;6.480;2022-11-20T01:24:02;24.13;;;16.10;;
36497;SDS011;22513;51.222;6.480;2022-11-20T01:26:30;26.10;;;15.95;;
36497;SDS011;22513;51.222;6.480;2022-11-20T01:28:58;25.17;;;15.73;;
36497;SDS011;22513;51.222;6.480;2022-11-20T01:31:25;29.05;;;17.25;;
36497;SDS011;22513;51.222;6.480;2022-11-20T01:33:59;24.58;;;14.07;;
36497;SDS011;22513;51.222;6.480;2022-11-20T01:36:27;26.13;;;16.48;;
36497;SDS011;22513;51.222;6.480;2022-11-20T01:38:54;24.40;;;14.52;;
36497;SDS011;22513;51.222;6.480;2022-11-20T01:41:21;24.50;;;15.15;;
36497;SDS011;22513;51.222;6.480;2022-11-20T01:44:07;29.35;;;16.83;;
36497;SDS011;22513;51.222;6.480;2022-11-20T01:46:36;30.67;;;17.40;;
36497;SDS011;22513;51.222;6.480;2022-11-20T01:52:08;25.88;;;14.57;;
36497;SDS011;22513;51.222;6.480;2022-11-20T01:54:45;30.30;;;19.25;;
36497;SDS011;22513;51.222;6.480;2022-11-20T01:57:16;35.63;;;17.40;;
36497;SDS011;22513;51.222;6.480;2022-11-20T01:59:45;30.30;;;18.33;;
36497;SDS011;22513;51.222;6.480;2022-11-20T02:02:17;34.20;;;18.48;;
36497;SDS011;22513;51.222;6.480;2022-11-20T02:04:44;34.97;;;19.58;;
36497;SDS011;22513;51.222;6.480;2022-11-20T02:07:10;34.30;;;19.38;;
36497;SDS011;22513;51.222;6.480;2022-11-20T02:09:36;33.50;;;20.00;;
36497;SDS011;22513;51.222;6.480;2022-11-20T02:12:01;35.13;;;20.02;;
36497;SDS011;22513;51.222;6.480;2022-11-20T02:14:28;36.83;;;20.10;;
36497;SDS011;22513;51.222;6.480;2022-11-20T02:16:54;33.05;;;20.15;;
36497;SDS011;22513;51.222;6.480;2022-11-20T02:24:24;36.03;;;21.40;;
36497;SDS011;22513;51.222;6.480;2022-11-20T02:27:03;37.97;;;21.35;;
36497;SDS011;22513;51.222;6.480;2022-11-20T02:29:54;40.53;;;21.92;;
36497;SDS011;22513;51.222;6.480;2022-11-20T02:32:23;40.97;;;23.35;;
36497;SDS011;22513;51.222;6.480;2022-11-20T02:34:50;44.95;;;23.52;;
36497;SDS011;22513;51.222;6.480;2022-11-20T02:37:16;47.50;;;25.40;;
36497;SDS011;22513;51.222;6.480;2022-11-20T02:39:44;52.13;;;25.15;;
36497;SDS011;22513;51.222;6.480;2022-11-20T02:42:12;50.58;;;24.50;;
36497;SDS011;22513;51.222;6.480;2022-11-20T02:44:38;43.50;;;23.88;;
36497;SDS011;22513;51.222;6.480;2022-11-20T02:47:03;49.88;;;24.60;;
36497;SDS011;22513;51.222;6.480;2022-11-20T02:49:29;54.47;;;26.58;;
36497;SDS011;22513;51.222;6.480;2022-11-20T02:51:55;59.95;;;28.45;;
36497;SDS011;22513;51.222;6.480;2022-11-20T02:54:20;55.65;;;27.40;;
36497;SDS011;22513;51.222;6.480;2022-11-20T02:56:46;59.33;;;25.92;;
36497;SDS011;22513;51.222;6.480;2022-11-20T02:59:11;52.30;;;27.08;;
36497;SDS011;22513;51.222;6.480;2022-11-20T03:01:37;58.45;;;27.80;;
36497;SDS011;22513;51.222;6.480;2022-11-20T03:04:03;54.28;;;27.65;;
36497;SDS011;22513;51.222;6.480;2022-11-20T03:06:29;64.15;;;29.90;;
36497;SDS011;22513;51.222;6.480;2022-11-20T03:08:54;57.80;;;27.48;;
36497;SDS011;22513;51.222;6.480;2022-11-20T03:11:20;56.92;;;26.73;;
36497;SDS011;22513;51.222;6.480;2022-11-20T03:13:46;62.58;;;28.58;;
36497;SDS011;22513;51.222;6.480;2022-11-20T03:16:19;57.53;;;27.85;;
36497;SDS011;22513;51.222;6.480;2022-11-20T03:18:46;66.10;;;28.83;;
36497;SDS011;22513;51.222;6.480;2022-11-20T03:21:13;65.72;;;29.95;;
36497;SDS011;22513;51.222;6.480;2022-11-20T03:23:39;68.45;;;31.77;;
36497;SDS011;22513;51.222;6.480;2022-11-20T03:26:15;63.50;;;31.00;;
36497;SDS011;22513;51.222;6.480;2022-11-20T03:28:47;79.65;;;33.92;;
36497;SDS011;22513;51.222;6.480;2022-11-20T03:31:19;75.63;;;30.83;;
36497;SDS011;22513;51.222;6.480;2022-11-20T03:33:46;75.50;;;34.72;;
36497;SDS011;22513;51.222;6.480;2022-11-20T03:36:13;73.55;;;32.60;;
36497;SDS011;22513;51.222;6.480;2022-11-20T03:38:40;69.75;;;34.22;;
36497;SDS011;22513;51.222;6.480;2022-11-20T03:41:10;79.63;;;36.13;;
36497;SDS011;22513;51.222;6.480;2022-11-20T03:43:37;87.85;;;38.85;;
36497;SDS011;22513;51.222;6.480;2022-11-20T03:46:03;81.57;;;38.95;;
36497;SDS011;22513;51.222;6.480;2022-11-20T03:48:30;63.33;;;31.17;;
36497;SDS011;22513;51.222;6.480;2022-11-20T03:51:08;63.65;;;32.63;;
36497;SDS011;22513;51.222;6.480;2022-11-20T03:53:41;66.75;;;32.72;;
36497;SDS011;22513;51.222;6.480;2022-11-20T03:56:08;77.05;;;35.30;;
36497;SDS011;22513;51.222;6.480;2022-11-20T03:58:35;71.68;;;35.47;;
36497;SDS011;22513;51.222;6.480;2022-11-20T04:01:09;60.15;;;33.00;;
36497;SDS011;22513;51.222;6.480;2022-11-20T04:03:37;58.33;;;30.60;;
36497;SDS011;22513;51.222;6.480;2022-11-20T04:06:46;63.47;;;31.58;;
36497;SDS011;22513;51.222;6.480;2022-11-20T04:09:02;63.47;;;33.25;;
36497;SDS011;22513;51.222;6.480;2022-11-20T04:11:29;58.55;;;31.30;;
36497;SDS011;22513;51.222;6.480;2022-11-20T04:13:57;62.13;;;30.25;;
36497;SDS011;22513;51.222;6.480;2022-11-20T04:16:24;58.53;;;31.42;;
36497;SDS011;22513;51.222;6.480;2022-11-20T04:18:54;54.33;;;30.85;;
36497;SDS011;22513;51.222;6.480;2022-11-20T04:21:22;50.35;;;28.75;;
36497;SDS011;22513;51.222;6.480;2022-11-20T04:23:49;50.03;;;29.60;;
36497;SDS011;22513;51.222;6.480;2022-11-20T04:26:15;50.97;;;28.90;;
36497;SDS011;22513;51.222;6.480;2022-11-20T04:28:41;44.97;;;27.02;;
36497;SDS011;22513;51.222;6.480;2022-11-20T04:33:34;55.83;;;28.15;;
36497;SDS011;22513;51.222;6.480;2022-11-20T04:36:01;47.80;;;26.38;;
36497;SDS011;22513;51.222;6.480;2022-11-20T04:38:28;46.95;;;26.50;;
36497;SDS011;22513;51.222;6.480;2022-11-20T04:40:57;44.47;;;25.77;;
36497;SDS011;22513;51.222;6.480;2022-11-20T04:43:27;46.58;;;25.77;;
36497;SDS011;22513;51.222;6.480;2022-11-20T04:45:54;45.17;;;26.52;;
36497;SDS011;22513;51.222;6.480;2022-11-20T04:48:20;45.58;;;25.55;;
36497;SDS011;22513;51.222;6.480;2022-11-20T04:50:46;48.97;;;26.70;;
36497;SDS011;22513;51.222;6.480;2022-11-20T04:53:12;41.83;;;24.63;;
36497;SDS011;22513;51.222;6.480;2022-11-20T04:55:38;43.65;;;25.27;;
36497;SDS011;22513;51.222;6.480;2022-11-20T04:58:03;45.78;;;26.02;;
36497;SDS011;22513;51.222;6.480;2022-11-20T05:00:29;44.60;;;24.70;;
36497;SDS011;22513;51.222;6.480;2022-11-20T05:02:54;38.08;;;21.95;;
36497;SDS011;22513;51.222;6.480;2022-11-20T05:05:20;34.67;;;21.95;;
36497;SDS011;22513;51.222;6.480;2022-11-20T05:07:46;41.80;;;23.92;;
36497;SDS011;22513;51.222;6.480;2022-11-20T05:10:11;37.05;;;22.27;;
36497;SDS011;22513;51.222;6.480;2022-11-20T05:12:37;37.10;;;21.30;;
36497;SDS011;22513;51.222;6.480;2022-11-20T05:15:02;38.15;;;22.52;;
36497;SDS011;22513;51.222;6.480;2022-11-20T05:17:28;39.58;;;23.67;;
36497;SDS011;22513;51.222;6.480;2022-11-20T05:19:56;37.60;;;21.88;;
36497;SDS011;22513;51.222;6.480;2022-11-20T05:22:22;37.30;;;22.42;;
36497;SDS011;22513;51.222;6.480;2022-11-20T05:24:47;38.97;;;21.80;;
36497;SDS011;22513;51.222;6.480;2022-11-20T05:27:13;37.50;;;20.95;;
36497;SDS011;22513;51.222;6.480;2022-11-20T05:29:39;36.85;;;21.35;;
36497;SDS011;22513;51.222;6.480;2022-11-20T05:32:04;40.15;;;22.52;;
36497;SDS011;22513;51.222;6.480;2022-11-20T05:34:32;39.25;;;20.95;;
36497;SDS011;22513;51.222;6.480;2022-11-20T05:36:58;38.00;;;21.85;;
36497;SDS011;22513;51.222;6.480;2022-11-20T05:39:23;40.75;;;23.77;;
36497;SDS011;22513;51.222;6.480;2022-11-20T05:41:49;33.80;;;20.50;;
36497;SDS011;22513;51.222;6.480;2022-11-20T05:44:34;36.10;;;21.20;;
36497;SDS011;22513;51.222;6.480;2022-11-20T05:47:00;30.85;;;19.50;;
36497;SDS011;22513;51.222;6.480;2022-11-20T05:49:25;33.55;;;19.33;;
36497;SDS011;22513;51.222;6.480;2022-11-20T05:51:51;34.20;;;20.65;;
36497;SDS011;22513;51.222;6.480;2022-11-20T05:54:16;36.50;;;20.30;;
36497;SDS011;22513;51.222;6.480;2022-11-20T05:56:42;33.40;;;20.52;;
36497;SDS011;22513;51.222;6.480;2022-11-20T05:59:08;33.00;;;18.33;;
36497;SDS011;22513;51.222;6.480;2022-11-20T06:01:33;28.23;;;18.40;;
36497;SDS011;22513;51.222;6.480;2022-11-20T06:04:01;32.58;;;19.70;;
36497;SDS011;22513;51.222;6.480;2022-11-20T06:06:26;35.85;;;20.30;;
36497;SDS011;22513;51.222;6.480;2022-11-20T06:08:52;35.20;;;20.88;;
36497;SDS011;22513;51.222;6.480;2022-11-20T06:11:18;33.35;;;19.83;;
36497;SDS011;22513;51.222;6.480;2022-11-20T06:13:44;37.28;;;21.80;;
36497;SDS011;22513;51.222;6.480;2022-11-20T06:16:11;35.67;;;18.77;;
36497;SDS011;22513;51.222;6.480;2022-11-20T06:18:37;35.78;;;20.20;;
36497;SDS011;22513;51.222;6.480;2022-11-20T06:21:05;35.00;;;20.52;;
36497;SDS011;22513;51.222;6.480;2022-11-20T06:23:49;32.88;;;19.92;;
36497;SDS011;22513;51.222;6.480;2022-11-20T06:26:16;35.83;;;22.98;;
36497;SDS011;22513;51.222;6.480;2022-11-20T06:28:45;40.00;;;22.80;;
36497;SDS011;22513;51.222;6.480;2022-11-20T06:31:11;42.72;;;23.83;;
36497;SDS011;22513;51.222;6.480;2022-11-20T06:33:39;42.80;;;23.52;;
36497;SDS011;22513;51.222;6.480;2022-11-20T06:36:05;41.92;;;23.55;;
36497;SDS011;22513;51.222;6.480;2022-11-20T06:38:31;41.45;;;23.90;;
36497;SDS011;22513;51.222;6.480;2022-11-20T06:40:57;41.08;;;24.20;;
36497;SDS011;22513;51.222;6.480;2022-11-20T06:43:23;44.65;;;26.25;;
36497;SDS011;22513;51.222;6.480;2022-11-20T06:45:55;43.78;;;25.38;;
36497;SDS011;22513;51.222;6.480;2022-11-20T06:48:22;56.45;;;27.80;;
36497;SDS011;22513;51.222;6.480;2022-11-20T06:50:48;48.50;;;28.35;;
36497;SDS011;22513;51.222;6.480;2022-11-20T06:53:14;45.83;;;26.30;;
36497;SDS011;22513;51.222;6.480;2022-11-20T06:55:43;50.55;;;27.60;;
36497;SDS011;22513;51.222;6.480;2022-11-20T06:58:13;44.85;;;26.65;;
36497;SDS011;22513;51.222;6.480;2022-11-20T07:00:39;53.25;;;28.17;;
36497;SDS011;22513;51.222;6.480;2022-11-20T07:03:06;49.55;;;26.88;;
36497;SDS011;22513;51.222;6.480;2022-11-20T07:05:33;49.00;;;26.90;;
36497;SDS011;22513;51.222;6.480;2022-11-20T07:07:59;48.45;;;27.35;;
36497;SDS011;22513;51.222;6.480;2022-11-20T07:10:25;46.85;;;27.15;;
36497;SDS011;22513;51.222;6.480;2022-11-20T07:12:51;43.70;;;24.92;;
36497;SDS011;22513;51.222;6.480;2022-11-20T07:15:18;46.92;;;26.45;;
36497;SDS011;22513;51.222;6.480;2022-11-20T07:17:44;44.85;;;26.40;;
36497;SDS011;22513;51.222;6.480;2022-11-20T07:20:10;38.30;;;24.65;;
36497;SDS011;22513;51.222;6.480;2022-11-20T07:22:36;43.58;;;24.73;;
36497;SDS011;22513;51.222;6.480;2022-11-20T07:25:02;43.35;;;23.88;;
36497;SDS011;22513;51.222;6.480;2022-11-20T07:27:29;42.97;;;24.88;;
36497;SDS011;22513;51.222;6.480;2022-11-20T07:29:55;38.55;;;26.55;;
36497;SDS011;22513;51.222;6.480;2022-11-20T07:32:20;41.92;;;26.05;;
36497;SDS011;22513;51.222;6.480;2022-11-20T07:34:46;40.33;;;24.73;;
36497;SDS011;22513;51.222;6.480;2022-11-20T07:37:12;40.05;;;25.00;;
36497;SDS011;22513;51.222;6.480;2022-11-20T07:39:38;39.28;;;25.42;;
36497;SDS011;22513;51.222;6.480;2022-11-20T07:42:04;38.92;;;24.98;;
36497;SDS011;22513;51.222;6.480;2022-11-20T07:44:30;37.20;;;24.42;;
36497;SDS011;22513;51.222;6.480;2022-11-20T07:46:56;41.40;;;24.42;;
36497;SDS011;22513;51.222;6.480;2022-11-20T07:49:21;35.17;;;22.02;;
36497;SDS011;22513;51.222;6.480;2022-11-20T07:51:49;34.80;;;21.33;;
36497;SDS011;22513;51.222;6.480;2022-11-20T07:54:16;40.58;;;23.00;;
36497;SDS011;22513;51.222;6.480;2022-11-20T07:56:41;36.53;;;23.33;;
36497;SDS011;22513;51.222;6.480;2022-11-20T07:59:07;37.00;;;22.08;;
36497;SDS011;22513;51.222;6.480;2022-11-20T08:01:33;36.45;;;22.90;;
36497;SDS011;22513;51.222;6.480;2022-11-20T08:03:58;34.00;;;21.63;;
36497;SDS011;22513;51.222;6.480;2022-11-20T08:06:24;34.17;;;21.05;;
36497;SDS011;22513;51.222;6.480;2022-11-20T08:08:50;31.90;;;21.17;;
36497;SDS011;22513;51.222;6.480;2022-11-20T08:11:16;34.20;;;20.63;;
36497;SDS011;22513;51.222;6.480;2022-11-20T08:14:00;31.05;;;20.23;;
36497;SDS011;22513;51.222;6.480;2022-11-20T08:16:41;33.40;;;21.20;;
36497;SDS011;22513;51.222;6.480;2022-11-20T08:19:11;35.25;;;21.13;;
36497;SDS011;22513;51.222;6.480;2022-11-20T08:21:38;35.78;;;19.92;;
36497;SDS011;22513;51.222;6.480;2022-11-20T08:24:04;35.38;;;20.77;;
36497;SDS011;22513;51.222;6.480;2022-11-20T08:26:30;34.83;;;21.13;;
36497;SDS011;22513;51.222;6.480;2022-11-20T08:28:56;34.65;;;20.55;;
36497;SDS011;22513;51.222;6.480;2022-11-20T08:31:23;35.05;;;20.75;;
36497;SDS011;22513;51.222;6.480;2022-11-20T08:33:49;32.13;;;21.30;;
36497;SDS011;22513;51.222;6.480;2022-11-20T08:36:16;34.20;;;21.60;;
36497;SDS011;22513;51.222;6.480;2022-11-20T08:38:42;34.10;;;21.20;;
36497;SDS011;22513;51.222;6.480;2022-11-20T08:41:11;36.63;;;22.02;;
36497;SDS011;22513;51.222;6.480;2022-11-20T08:43:50;36.22;;;20.30;;
36497;SDS011;22513;51.222;6.480;2022-11-20T08:46:17;33.17;;;20.38;;
36497;SDS011;22513;51.222;6.480;2022-11-20T08:48:43;34.45;;;20.15;;
36497;SDS011;22513;51.222;6.480;2022-11-20T08:51:09;30.13;;;19.35;;
36497;SDS011;22513;51.222;6.480;2022-11-20T08:53:35;31.48;;;19.45;;
36497;SDS011;22513;51.222;6.480;2022-11-20T08:56:01;28.58;;;18.65;;
36497;SDS011;22513;51.222;6.480;2022-11-20T08:58:26;30.55;;;20.00;;
36497;SDS011;22513;51.222;6.480;2022-11-20T09:00:52;34.05;;;20.13;;
36497;SDS011;22513;51.222;6.480;2022-11-20T09:03:18;42.08;;;20.35;;
36497;SDS011;22513;51.222;6.480;2022-11-20T09:05:43;44.53;;;21.42;;
36497;SDS011;22513;51.222;6.480;2022-11-20T09:08:09;40.22;;;21.13;;
36497;SDS011;22513;51.222;6.480;2022-11-20T09:10:35;47.28;;;20.23;;
36497;SDS011;22513;51.222;6.480;2022-11-20T09:13:01;40.53;;;20.10;;
36497;SDS011;22513;51.222;6.480;2022-11-20T09:15:27;43.65;;;22.30;;
36497;SDS011;22513;51.222;6.480;2022-11-20T09:17:57;41.53;;;20.85;;
36497;SDS011;22513;51.222;6.480;2022-11-20T09:20:24;47.50;;;21.15;;
36497;SDS011;22513;51.222;6.480;2022-11-20T09:22:50;44.95;;;21.60;;
36497;SDS011;22513;51.222;6.480;2022-11-20T09:25:16;42.50;;;21.67;;
36497;SDS011;22513;51.222;6.480;2022-11-20T09:27:42;48.53;;;23.30;;
36497;SDS011;22513;51.222;6.480;2022-11-20T09:30:09;41.05;;;22.35;;
36497;SDS011;22513;51.222;6.480;2022-11-20T09:32:35;35.78;;;21.17;;
36497;SDS011;22513;51.222;6.480;2022-11-20T09:35:04;38.83;;;21.90;;
36497;SDS011;22513;51.222;6.480;2022-11-20T09:37:29;38.60;;;20.42;;
36497;SDS011;22513;51.222;6.480;2022-11-20T09:39:55;39.92;;;21.25;;
36497;SDS011;22513;51.222;6.480;2022-11-20T09:42:36;40.22;;;21.60;;
36497;SDS011;22513;51.222;6.480;2022-11-20T09:48:26;45.22;;;23.60;;
36497;SDS011;22513;51.222;6.480;2022-11-20T09:51:16;44.55;;;23.58;;
36497;SDS011;22513;51.222;6.480;2022-11-20T09:54:02;48.08;;;23.05;;
36497;SDS011;22513;51.222;6.480;2022-11-20T09:56:45;47.58;;;22.67;;
36497;SDS011;22513;51.222;6.480;2022-11-20T10:02:15;47.58;;;20.35;;
36497;SDS011;22513;51.222;6.480;2022-11-20T10:04:47;44.53;;;23.13;;
36497;SDS011;22513;51.222;6.480;2022-11-20T10:07:27;45.60;;;23.20;;
36497;SDS011;22513;51.222;6.480;2022-11-20T10:10:13;43.83;;;21.70;;
36497;SDS011;22513;51.222;6.480;2022-11-20T10:12:51;48.03;;;24.25;;
36497;SDS011;22513;51.222;6.480;2022-11-20T10:22:12;47.13;;;24.10;;
36497;SDS011;22513;51.222;6.480;2022-11-20T10:25:00;49.95;;;23.23;;
36497;SDS011;22513;51.222;6.480;2022-11-20T10:32:42;39.00;;;22.27;;
36497;SDS011;22513;51.222;6.480;2022-11-20T10:37:40;42.03;;;23.48;;
36497;SDS011;22513;51.222;6.480;2022-11-20T10:40:19;45.17;;;22.77;;
36497;SDS011;22513;51.222;6.480;2022-11-20T10:43:12;43.90;;;21.27;;
36497;SDS011;22513;51.222;6.480;2022-11-20T10:48:10;46.08;;;22.65;;
36497;SDS011;22513;51.222;6.480;2022-11-20T10:56:35;40.58;;;22.15;;
36497;SDS011;22513;51.222;6.480;2022-11-20T11:01:47;40.50;;;21.90;;
36497;SDS011;22513;51.222;6.480;2022-11-20T11:04:20;43.53;;;22.02;;
36497;SDS011;22513;51.222;6.480;2022-11-20T11:06:58;46.15;;;22.80;;
36497;SDS011;22513;51.222;6.480;2022-11-20T11:09:39;42.00;;;22.75;;
36497;SDS011;22513;51.222;6.480;2022-11-20T11:12:09;45.17;;;21.67;;
36497;SDS011;22513;51.222;6.480;2022-11-20T11:14:42;44.45;;;21.95;;
36497;SDS011;22513;51.222;6.480;2022-11-20T11:17:28;38.63;;;19.25;;
36497;SDS011;22513;51.222;6.480;2022-11-20T11:22:42;37.08;;;20.00;;
36497;SDS011;22513;51.222;6.480;2022-11-20T11:25:20;39.80;;;20.70;;
36497;SDS011;22513;51.222;6.480;2022-11-20T11:27:46;41.08;;;20.33;;
36497;SDS011;22513;51.222;6.480;2022-11-20T11:30:17;36.28;;;19.50;;
36497;SDS011;22513;51.222;6.480;2022-11-20T11:32:44;45.38;;;21.55;;
36497;SDS011;22513;51.222;6.480;2022-11-20T11:38:13;42.75;;;21.25;;
36497;SDS011;22513;51.222;6.480;2022-11-20T11:40:46;36.15;;;18.75;;
36497;SDS011;22513;51.222;6.480;2022-11-20T11:43:17;33.78;;;18.83;;
36497;SDS011;22513;51.222;6.480;2022-11-20T11:46:25;33.58;;;17.55;;
36497;SDS011;22513;51.222;6.480;2022-11-20T11:51:38;31.17;;;17.20;;
36497;SDS011;22513;51.222;6.480;2022-11-20T11:54:23;32.55;;;17.05;;
36497;SDS011;22513;51.222;6.480;2022-11-20T11:57:38;31.00;;;17.15;;
36497;SDS011;22513;51.222;6.480;2022-11-20T12:05:22;31.45;;;17.15;;
36497;SDS011;22513;51.222;6.480;2022-11-20T12:15:52;31.58;;;18.23;;
36497;SDS011;22513;51.222;6.480;2022-11-20T12:18:19;36.88;;;18.33;;
36497;SDS011;22513;51.222;6.480;2022-11-20T12:26:27;35.15;;;18.92;;
36497;SDS011;22513;51.222;6.480;2022-11-20T12:37:16;37.63;;;19.85;;
36497;SDS011;22513;51.222;6.480;2022-11-20T12:40:15;35.90;;;19.65;;
36497;SDS011;22513;51.222;6.480;2022-11-20T12:48:52;33.33;;;18.15;;
36497;SDS011;22513;51.222;6.480;2022-11-20T12:51:26;34.15;;;19.08;;
36497;SDS011;22513;51.222;6.480;2022-11-20T13:07:39;37.10;;;20.45;;
36497;SDS011;22513;51.222;6.480;2022-11-20T13:10:13;32.20;;;18.48;;
36497;SDS011;22513;51.222;6.480;2022-11-20T13:12:56;34.58;;;20.25;;
36497;SDS011;22513;51.222;6.480;2022-11-20T13:18:12;36.15;;;19.85;;
36497;SDS011;22513;51.222;6.480;2022-11-20T13:20:43;36.28;;;20.10;;
36497;SDS011;22513;51.222;6.480;2022-11-20T13:23:10;37.10;;;19.88;;
36497;SDS011;22513;51.222;6.480;2022-11-20T13:25:39;38.88;;;20.20;;
36497;SDS011;22513;51.222;6.480;2022-11-20T13:28:27;36.70;;;19.63;;
36497;SDS011;22513;51.222;6.480;2022-11-20T13:30:53;36.05;;;19.27;;
36497;SDS011;22513;51.222;6.480;2022-11-20T13:33:33;38.38;;;20.88;;
36497;SDS011;22513;51.222;6.480;2022-11-20T13:38:39;32.85;;;18.10;;
36497;SDS011;22513;51.222;6.480;2022-11-20T13:41:23;38.40;;;21.90;;
36497;SDS011;22513;51.222;6.480;2022-11-20T13:43:56;36.95;;;20.77;;
36497;SDS011;22513;51.222;6.480;2022-11-20T13:46:44;35.40;;;19.92;;
36497;SDS011;22513;51.222;6.480;2022-11-20T13:49:16;33.92;;;19.85;;
36497;SDS011;22513;51.222;6.480;2022-11-20T13:51:51;70.00;;;32.20;;
36497;SDS011;22513;51.222;6.480;2022-11-20T14:02:35;39.92;;;21.33;;
36497;SDS011;22513;51.222;6.480;2022-11-20T14:05:01;38.60;;;21.60;;
36497;SDS011;22513;51.222;6.480;2022-11-20T14:07:34;35.30;;;20.27;;
36497;SDS011;22513;51.222;6.480;2022-11-20T14:10:04;39.50;;;21.88;;
36497;SDS011;22513;51.222;6.480;2022-11-20T14:12:31;33.83;;;19.58;;
36497;SDS011;22513;51.222;6.480;2022-11-20T14:14:59;39.20;;;20.13;;
36497;SDS011;22513;51.222;6.480;2022-11-20T14:20:02;39.08;;;20.45;;
36497;SDS011;22513;51.222;6.480;2022-11-20T14:22:29;41.70;;;21.02;;
36497;SDS011;22513;51.222;6.480;2022-11-20T14:25:03;39.63;;;21.30;;
36497;SDS011;22513;51.222;6.480;2022-11-20T14:27:42;41.58;;;22.27;;
36497;SDS011;22513;51.222;6.480;2022-11-20T14:30:13;36.45;;;20.00;;
36497;SDS011;22513;51.222;6.480;2022-11-20T14:32:41;37.10;;;21.33;;
36497;SDS011;22513;51.222;6.480;2022-11-20T14:35:09;38.95;;;21.67;;
36497;SDS011;22513;51.222;6.480;2022-11-20T14:37:38;41.15;;;20.70;;
36497;SDS011;22513;51.222;6.480;2022-11-20T14:40:21;45.38;;;22.27;;
36497;SDS011;22513;51.222;6.480;2022-11-20T14:42:54;42.10;;;21.65;;
36497;SDS011;22513;51.222;6.480;2022-11-20T14:45:20;41.38;;;22.02;;
36497;SDS011;22513;51.222;6.480;2022-11-20T14:47:46;39.97;;;21.58;;
36497;SDS011;22513;51.222;6.480;2022-11-20T14:50:16;43.60;;;21.77;;
36497;SDS011;22513;51.222;6.480;2022-11-20T14:52:52;42.92;;;22.67;;
36497;SDS011;22513;51.222;6.480;2022-11-20T14:55:35;40.10;;;19.35;;
36497;SDS011;22513;51.222;6.480;2022-11-20T14:58:03;37.00;;;20.65;;
36497;SDS011;22513;51.222;6.480;2022-11-20T15:00:31;41.72;;;22.17;;
36497;SDS011;22513;51.222;6.480;2022-11-20T15:02:58;37.03;;;20.85;;
36497;SDS011;22513;51.222;6.480;2022-11-20T15:05:25;38.38;;;21.77;;
36497;SDS011;22513;51.222;6.480;2022-11-20T15:08:09;41.03;;;21.15;;
36497;SDS011;22513;51.222;6.480;2022-11-20T15:10:36;39.72;;;22.20;;
36497;SDS011;22513;51.222;6.480;2022-11-20T15:13:04;37.95;;;20.45;;
36497;SDS011;22513;51.222;6.480;2022-11-20T15:15:48;38.72;;;21.50;;
36497;SDS011;22513;51.222;6.480;2022-11-20T15:18:16;40.78;;;22.00;;
36497;SDS011;22513;51.222;6.480;2022-11-20T15:20:44;41.13;;;21.92;;
36497;SDS011;22513;51.222;6.480;2022-11-20T15:23:17;41.58;;;21.88;;
36497;SDS011;22513;51.222;6.480;2022-11-20T15:25:44;39.50;;;21.35;;
36497;SDS011;22513;51.222;6.480;2022-11-20T15:30:39;46.83;;;22.45;;
36497;SDS011;22513;51.222;6.480;2022-11-20T15:33:07;44.33;;;21.75;;
36497;SDS011;22513;51.222;6.480;2022-11-20T15:35:33;45.85;;;24.88;;
36497;SDS011;22513;51.222;6.480;2022-11-20T15:37:58;47.22;;;23.65;;
36497;SDS011;22513;51.222;6.480;2022-11-20T15:40:24;49.55;;;23.85;;
36497;SDS011;22513;51.222;6.480;2022-11-20T15:42:50;47.33;;;23.75;;
36497;SDS011;22513;51.222;6.480;2022-11-20T15:45:28;49.65;;;23.13;;
36497;SDS011;22513;51.222;6.480;2022-11-20T15:47:58;48.42;;;25.80;;
36497;SDS011;22513;51.222;6.480;2022-11-20T15:50:25;55.80;;;25.88;;
36497;SDS011;22513;51.222;6.480;2022-11-20T15:52:58;52.80;;;25.27;;
36497;SDS011;22513;51.222;6.480;2022-11-20T15:55:23;52.22;;;25.48;;
36497;SDS011;22513;51.222;6.480;2022-11-20T15:57:49;49.45;;;23.58;;
36497;SDS011;22513;51.222;6.480;2022-11-20T16:00:15;54.33;;;25.30;;
36497;SDS011;22513;51.222;6.480;2022-11-20T16:02:40;53.42;;;24.23;;
36497;SDS011;22513;51.222;6.480;2022-11-20T16:05:09;54.38;;;24.48;;
36497;SDS011;22513;51.222;6.480;2022-11-20T16:07:37;54.50;;;24.20;;
36497;SDS011;22513;51.222;6.480;2022-11-20T16:10:03;54.88;;;25.15;;
36497;SDS011;22513;51.222;6.480;2022-11-20T16:12:29;55.30;;;25.55;;
36497;SDS011;22513;51.222;6.480;2022-11-20T16:15:13;59.78;;;26.75;;
36497;SDS011;22513;51.222;6.480;2022-11-20T16:17:57;66.50;;;26.77;;
36497;SDS011;22513;51.222;6.480;2022-11-20T16:20:23;59.33;;;26.17;;
36497;SDS011;22513;51.222;6.480;2022-11-20T16:22:48;66.13;;;26.67;;
36497;SDS011;22513;51.222;6.480;2022-11-20T16:25:14;58.90;;;26.50;;
36497;SDS011;22513;51.222;6.480;2022-11-20T16:27:40;71.05;;;27.10;;
36497;SDS011;22513;51.222;6.480;2022-11-20T16:30:05;76.05;;;29.42;;
36497;SDS011;22513;51.222;6.480;2022-11-20T16:32:31;62.97;;;26.65;;